Time;durP1;ratioP1;P1;durP2;ratioP2;P2;SDS_P1;SDS_P2;PMS_P1;PMS_P2;Temp;Humidity;BMP_temperature;BMP_pressure;BME280_temperature;BME280_humidity;BME280_pressure;Samples;Min_cycle;Max_cycle;Signal;HPM_P1;HPM_P2
2021/09/13 00:00:28;;;;;;;13.50;6.72;;;;;;;;;;143738;602;46018;-90
2021/09/13 00:02:56;;;;;;;15.10;6.53;;;;;;;;;;143739;577;45020;-89
2021/09/13 00:05:23;;;;;;;12.27;7.07;;;;;;;;;;143731;572;46023;-88
2021/09/13 00:07:50;;;;;;;10.52;6.45;;;;;;;;;;143731;608;46019;-91
2021/09/13 00:10:16;;;;;;;9.05;6.87;;;;;;;;;;143731;590;46020;-87
2021/09/13 00:12:43;;;;;;;13.25;7.25;;;;;;;;;;143731;565;46013;-86
2021/09/13 00:15:11;;;;;;;13.57;6.55;;;;;;;;;;143733;569;46914;-87
2021/09/13 00:17:38;;;;;;;10.55;6.32;;;;;;;;;;143730;681;46020;-86
2021/09/13 00:20:07;;;;;;;9.90;6.37;;;;;;;;;;143725;585;46021;-88
2021/09/13 00:22:38;;;;;;;13.77;7.35;;;;;;;;;;143733;679;46012;-86
2021/09/13 00:25:05;;;;;;;8.15;6.32;;;;;;;;;;143732;585;47022;-87
2021/09/13 00:27:32;;;;;;;13.25;6.30;;;;;;;;;;143734;579;46021;-88
2021/09/13 00:29:59;;;;;;;12.45;6.78;;;;;;;;;;143733;566;46020;-90
2021/09/13 00:32:26;;;;;;;11.38;7.05;;;;;;;;;;143735;700;46010;-89
2021/09/13 00:34:53;;;;;;;11.35;6.10;;;;;;;;;;143733;569;46014;-88
2021/09/13 00:37:21;;;;;;;8.55;5.70;;;;;;;;;;143732;570;46012;-90
2021/09/13 00:39:47;;;;;;;10.60;6.65;;;;;;;;;;143732;588;46020;-88
2021/09/13 00:42:14;;;;;;;10.23;5.93;;;;;;;;;;143736;582;46021;-89
2021/09/13 00:44:41;;;;;;;9.80;6.97;;;;;;;;;;143725;579;46022;-88
2021/09/13 00:47:08;;;;;;;11.35;7.28;;;;;;;;;;143732;585;46012;-88
2021/09/13 00:49:35;;;;;;;11.25;7.30;;;;;;;;;;143733;655;46013;-89
2021/09/13 00:52:02;;;;;;;9.38;7.22;;;;;;;;;;143736;758;46012;-89
2021/09/13 00:54:28;;;;;;;8.10;6.30;;;;;;;;;;143733;588;47014;-87
2021/09/13 00:56:55;;;;;;;13.43;6.80;;;;;;;;;;143734;590;45999;-87
2021/09/13 00:59:23;;;;;;;15.80;7.03;;;;;;;;;;143733;584;46020;-89
2021/09/13 01:01:49;;;;;;;11.07;7.18;;;;;;;;;;143734;620;46020;-87
2021/09/13 01:04:16;;;;;;;18.15;7.03;;;;;;;;;;143734;684;46022;-88
2021/09/13 01:06:43;;;;;;;12.75;7.07;;;;;;;;;;143732;643;46012;-89
2021/09/13 01:09:10;;;;;;;8.02;6.40;;;;;;;;;;143727;574;46020;-88
2021/09/13 01:11:36;;;;;;;12.52;6.47;;;;;;;;;;143734;587;46012;-88
2021/09/13 01:14:03;;;;;;;14.38;6.80;;;;;;;;;;143739;569;46020;-88
2021/09/13 01:16:30;;;;;;;10.75;7.00;;;;;;;;;;143733;599;46012;-87
2021/09/13 01:19:00;;;;;;;14.65;6.70;;;;;;;;;;143732;645;46019;-87
2021/09/13 01:21:27;;;;;;;12.63;7.10;;;;;;;;;;143733;583;46020;-88
2021/09/13 01:23:57;;;;;;;10.35;7.45;;;;;;;;;;143732;569;46044;-87
2021/09/13 01:26:24;;;;;;;15.60;7.10;;;;;;;;;;143731;581;46013;-88
2021/09/13 01:28:51;;;;;;;9.30;6.50;;;;;;;;;;143732;579;46038;-87
2021/09/13 01:31:17;;;;;;;9.60;7.25;;;;;;;;;;143731;627;46022;-87
2021/09/13 01:33:44;;;;;;;12.65;7.40;;;;;;;;;;143724;573;46020;-88
2021/09/13 01:36:11;;;;;;;9.20;6.53;;;;;;;;;;143730;686;46923;-87
2021/09/13 01:38:38;;;;;;;10.98;7.30;;;;;;;;;;143730;583;46018;-89
2021/09/13 01:41:05;;;;;;;15.55;7.22;;;;;;;;;;143732;585;46015;-88
2021/09/13 01:43:31;;;;;;;8.70;6.97;;;;;;;;;;143731;569;47021;-88
2021/09/13 01:45:58;;;;;;;18.55;7.95;;;;;;;;;;143731;594;46012;-89
2021/09/13 01:48:24;;;;;;;9.60;6.93;;;;;;;;;;143731;594;47018;-89
2021/09/13 01:50:51;;;;;;;12.07;7.12;;;;;;;;;;143733;730;46012;-88
2021/09/13 01:53:18;;;;;;;10.20;6.20;;;;;;;;;;143729;592;46020;-87
2021/09/13 01:55:45;;;;;;;9.63;5.85;;;;;;;;;;143732;633;46012;-87
2021/09/13 01:58:12;;;;;;;14.00;6.80;;;;;;;;;;143727;569;46018;-88
2021/09/13 02:00:38;;;;;;;9.13;5.45;;;;;;;;;;143733;584;46012;-89
2021/09/13 02:03:05;;;;;;;11.77;6.55;;;;;;;;;;143732;569;46017;-89
2021/09/13 02:05:31;;;;;;;10.98;6.00;;;;;;;;;;143731;585;46012;-89
2021/09/13 02:07:58;;;;;;;16.85;7.12;;;;;;;;;;143732;615;46018;-86
2021/09/13 02:10:25;;;;;;;8.57;6.47;;;;;;;;;;143734;625;46013;-87
2021/09/13 02:12:52;;;;;;;12.52;6.10;;;;;;;;;;143730;565;47021;-87
2021/09/13 02:15:18;;;;;;;15.90;6.12;;;;;;;;;;143730;573;46012;-88
2021/09/13 02:17:45;;;;;;;10.40;5.85;;;;;;;;;;143731;563;46018;-90
2021/09/13 02:20:13;;;;;;;14.95;6.28;;;;;;;;;;143730;605;46012;-88
2021/09/13 02:22:40;;;;;;;11.12;5.82;;;;;;;;;;143721;576;47020;-89
2021/09/13 02:25:09;;;;;;;8.10;5.28;;;;;;;;;;143729;566;47023;-87
2021/09/13 02:27:36;;;;;;;11.02;6.45;;;;;;;;;;143733;583;46018;-89
2021/09/13 02:30:03;;;;;;;7.87;4.93;;;;;;;;;;143732;649;46012;-89
2021/09/13 02:32:30;;;;;;;11.38;5.40;;;;;;;;;;143729;566;46020;-89
2021/09/13 02:34:57;;;;;;;12.75;5.72;;;;;;;;;;143729;575;46923;-90
2021/09/13 02:37:26;;;;;;;15.02;6.53;;;;;;;;;;143729;650;46018;-88
2021/09/13 02:39:53;;;;;;;11.98;6.00;;;;;;;;;;143733;582;46012;-90
2021/09/13 02:42:20;;;;;;;10.80;6.03;;;;;;;;;;143732;588;46021;-87
2021/09/13 02:44:46;;;;;;;9.65;6.25;;;;;;;;;;143728;638;47012;-87
2021/09/13 02:47:13;;;;;;;11.90;5.80;;;;;;;;;;143723;626;46019;-88
2021/09/13 02:49:40;;;;;;;16.40;5.55;;;;;;;;;;143732;626;46012;-87
2021/09/13 02:52:07;;;;;;;11.85;5.35;;;;;;;;;;143732;607;46020;-87
2021/09/13 02:54:34;;;;;;;9.55;6.15;;;;;;;;;;143730;578;46023;-89
2021/09/13 02:57:00;;;;;;;16.75;5.95;;;;;;;;;;143732;630;46018;-89
2021/09/13 02:59:31;;;;;;;7.43;5.78;;;;;;;;;;143730;564;46012;-89
2021/09/13 03:01:58;;;;;;;10.55;5.97;;;;;;;;;;143731;582;46020;-89
2021/09/13 03:04:24;;;;;;;10.52;6.12;;;;;;;;;;143730;654;46013;-89
2021/09/13 03:06:53;;;;;;;10.85;5.55;;;;;;;;;;143731;689;46018;-88
2021/09/13 03:09:20;;;;;;;13.80;6.75;;;;;;;;;;143731;640;46012;-88
2021/09/13 03:11:47;;;;;;;12.77;5.87;;;;;;;;;;143725;610;46018;-90
2021/09/13 03:14:15;;;;;;;11.00;6.07;;;;;;;;;;143730;652;46012;-88
2021/09/13 03:16:42;;;;;;;15.32;6.15;;;;;;;;;;143731;564;46020;-88
2021/09/13 03:19:08;;;;;;;16.75;6.03;;;;;;;;;;143731;569;46015;-89
2021/09/13 03:21:35;;;;;;;10.50;5.70;;;;;;;;;;143730;569;46020;-87
2021/09/13 03:24:02;;;;;;;9.75;5.60;;;;;;;;;;143730;570;46012;-89
2021/09/13 03:26:29;;;;;;;8.18;6.12;;;;;;;;;;143731;617;47019;-88
2021/09/13 03:28:56;;;;;;;13.45;6.15;;;;;;;;;;143732;634;46012;-87
2021/09/13 03:31:22;;;;;;;12.68;5.78;;;;;;;;;;143728;602;47020;-87
2021/09/13 03:33:49;;;;;;;13.32;5.50;;;;;;;;;;143729;583;46013;-87
2021/09/13 03:36:18;;;;;;;9.07;6.10;;;;;;;;;;143722;567;46018;-86
2021/09/13 03:38:44;;;;;;;10.88;6.22;;;;;;;;;;143731;569;46012;-88
2021/09/13 03:41:12;;;;;;;23.42;6.82;;;;;;;;;;143729;717;48020;-87
2021/09/13 03:43:39;;;;;;;10.32;6.43;;;;;;;;;;143728;612;46022;-87
2021/09/13 03:46:06;;;;;;;16.98;6.75;;;;;;;;;;143733;612;46018;-88
2021/09/13 03:48:33;;;;;;;17.67;6.50;;;;;;;;;;143730;569;46023;-87
2021/09/13 03:51:01;;;;;;;12.90;7.35;;;;;;;;;;143729;619;46020;-89
2021/09/13 03:53:28;;;;;;;11.27;6.93;;;;;;;;;;143725;577;46012;-89
2021/09/13 03:55:55;;;;;;;8.77;7.10;;;;;;;;;;143729;644;46019;-87
2021/09/13 03:58:23;;;;;;;12.98;6.72;;;;;;;;;;143733;587;46012;-88
2021/09/13 04:00:50;;;;;;;15.05;6.95;;;;;;;;;;143727;636;46020;-89
2021/09/13 04:03:25;;;;;;;15.57;7.93;;;;;;;;;;143734;567;45922;-89
2021/09/13 04:05:56;;;;;;;14.73;7.28;;;;;;;;;;143733;577;46018;-88
2021/09/13 04:08:58;;;;;;;12.45;7.25;;;;;;;;;;143735;564;45022;-87
2021/09/13 04:11:25;;;;;;;14.90;7.65;;;;;;;;;;143732;572;46023;-89
2021/09/13 04:13:54;;;;;;;15.95;8.75;;;;;;;;;;143733;606;46012;-88
2021/09/13 04:16:21;;;;;;;31.10;8.82;;;;;;;;;;143724;590;46018;-90
2021/09/13 04:18:49;;;;;;;17.23;9.15;;;;;;;;;;143731;600;46023;-88
2021/09/13 04:21:16;;;;;;;14.45;8.88;;;;;;;;;;143733;581;46020;-88
2021/09/13 04:23:43;;;;;;;17.65;8.98;;;;;;;;;;143730;613;46022;-88
2021/09/13 04:26:09;;;;;;;16.40;9.07;;;;;;;;;;143722;598;46019;-88
2021/09/13 04:28:37;;;;;;;19.02;9.13;;;;;;;;;;143734;569;46012;-90
2021/09/13 04:31:03;;;;;;;19.80;8.20;;;;;;;;;;143729;589;47020;-88
2021/09/13 04:33:30;;;;;;;15.18;7.65;;;;;;;;;;143731;592;46013;-90
2021/09/13 04:35:57;;;;;;;17.58;7.43;;;;;;;;;;143731;638;46014;-86
2021/09/13 04:38:24;;;;;;;12.88;7.35;;;;;;;;;;143732;628;46020;-87
2021/09/13 04:40:51;;;;;;;15.20;8.50;;;;;;;;;;143731;606;46020;-85
2021/09/13 04:43:19;;;;;;;13.32;8.00;;;;;;;;;;143730;660;46012;-88
2021/09/13 04:45:46;;;;;;;11.50;7.47;;;;;;;;;;143730;620;47018;-87
2021/09/13 04:48:13;;;;;;;16.25;7.70;;;;;;;;;;143732;598;46022;-84
2021/09/13 04:50:40;;;;;;;15.00;6.72;;;;;;;;;;143724;582;46020;-87
2021/09/13 04:53:07;;;;;;;20.60;6.97;;;;;;;;;;143728;658;46012;-87
2021/09/13 04:55:35;;;;;;;14.15;6.43;;;;;;;;;;143732;602;46018;-87
2021/09/13 04:58:02;;;;;;;11.38;5.85;;;;;;;;;;143732;627;46020;-88
2021/09/13 05:00:30;;;;;;;12.57;6.37;;;;;;;;;;143730;577;46020;-88
2021/09/13 05:02:56;;;;;;;20.10;7.68;;;;;;;;;;143729;581;46013;-88
2021/09/13 05:05:23;;;;;;;17.73;6.05;;;;;;;;;;143729;573;47018;-87
2021/09/13 05:08:06;;;;;;;8.48;5.53;;;;;;;;;;143737;579;46012;-87
2021/09/13 05:11:05;;;;;;;12.30;5.53;;;;;;;;;;143733;571;45024;-86
2021/09/13 05:13:32;;;;;;;10.60;5.60;;;;;;;;;;143735;586;45919;-89
2021/09/13 05:15:59;;;;;;;9.70;5.22;;;;;;;;;;143727;573;46027;-87
2021/09/13 05:18:27;;;;;;;11.70;6.28;;;;;;;;;;143732;569;46019;-87
2021/09/13 05:20:55;;;;;;;11.63;6.15;;;;;;;;;;143731;577;46020;-88
2021/09/13 05:23:25;;;;;;;10.07;6.05;;;;;;;;;;143731;579;46014;-89
2021/09/13 05:25:52;;;;;;;13.65;5.70;;;;;;;;;;143728;622;46014;-86
2021/09/13 05:28:19;;;;;;;11.88;5.32;;;;;;;;;;143731;593;46012;-88
2021/09/13 05:30:45;;;;;;;10.80;5.78;;;;;;;;;;143730;593;46014;-88
2021/09/13 05:33:12;;;;;;;11.77;5.95;;;;;;;;;;143732;591;46013;-86
2021/09/13 05:35:39;;;;;;;11.32;5.85;;;;;;;;;;143734;648;45018;-87
2021/09/13 05:38:06;;;;;;;11.20;5.35;;;;;;;;;;143732;681;46012;-91
2021/09/13 05:40:32;;;;;;;9.52;5.55;;;;;;;;;;143725;564;46020;-88
2021/09/13 05:43:02;;;;;;;16.77;6.05;;;;;;;;;;143730;579;46012;-89
2021/09/13 05:45:29;;;;;;;15.50;6.60;;;;;;;;;;143733;592;46018;-91
2021/09/13 05:47:57;;;;;;;26.42;8.00;;;;;;;;;;143730;614;46013;-89
2021/09/13 05:50:24;;;;;;;25.15;8.20;;;;;;;;;;143730;638;47018;-89
2021/09/13 05:52:52;;;;;;;20.12;9.18;;;;;;;;;;143732;562;46012;-92
2021/09/13 05:55:18;;;;;;;16.67;8.13;;;;;;;;;;143733;565;46012;-89
2021/09/13 05:57:46;;;;;;;18.92;8.82;;;;;;;;;;143733;666;47020;-90
2021/09/13 06:00:13;;;;;;;21.50;8.30;;;;;;;;;;143728;595;47020;-90
2021/09/13 06:02:41;;;;;;;16.80;8.05;;;;;;;;;;143727;634;46012;-88
2021/09/13 06:05:11;;;;;;;13.50;8.35;;;;;;;;;;143725;578;46018;-89
2021/09/13 06:07:38;;;;;;;20.25;8.45;;;;;;;;;;143731;613;47020;-87
2021/09/13 06:10:06;;;;;;;25.25;8.23;;;;;;;;;;143730;582;46021;-89
2021/09/13 06:12:36;;;;;;;14.95;7.32;;;;;;;;;;143730;592;46012;-90
2021/09/13 06:15:03;;;;;;;20.10;8.30;;;;;;;;;;143731;569;46018;-87
2021/09/13 06:17:30;;;;;;;14.57;7.20;;;;;;;;;;143733;579;46013;-87
2021/09/13 06:19:57;;;;;;;22.35;7.57;;;;;;;;;;143730;570;46021;-88
2021/09/13 06:22:24;;;;;;;15.73;6.62;;;;;;;;;;143732;614;46012;-89
2021/09/13 06:24:52;;;;;;;7.57;5.07;;;;;;;;;;143730;575;46019;-90
2021/09/13 06:27:22;;;;;;;10.40;4.57;;;;;;;;;;143728;599;48012;-86
2021/09/13 06:29:50;;;;;;;12.63;4.32;;;;;;;;;;143726;575;46018;-88
2021/09/13 06:32:16;;;;;;;5.45;4.07;;;;;;;;;;143732;620;46013;-90
2021/09/13 06:34:43;;;;;;;12.25;4.50;;;;;;;;;;143732;583;46018;-88
2021/09/13 06:37:10;;;;;;;6.97;4.45;;;;;;;;;;143733;624;46012;-87
2021/09/13 06:39:37;;;;;;;11.20;5.97;;;;;;;;;;143732;565;46017;-87
2021/09/13 06:42:04;;;;;;;12.32;5.07;;;;;;;;;;143728;607;47022;-86
2021/09/13 06:44:31;;;;;;;7.00;4.53;;;;;;;;;;143732;654;46014;-88
2021/09/13 06:47:06;;;;;;;9.40;4.80;;;;;;;;;;143735;586;46013;-89
2021/09/13 06:49:33;;;;;;;7.78;4.95;;;;;;;;;;143732;569;46020;-89
2021/09/13 06:52:02;;;;;;;7.95;4.78;;;;;;;;;;143730;648;46022;-88
2021/09/13 06:54:36;;;;;;;8.80;4.50;;;;;;;;;;143724;566;46019;-87
2021/09/13 06:57:03;;;;;;;14.02;4.47;;;;;;;;;;143734;579;46012;-88
2021/09/13 06:59:30;;;;;;;10.57;4.95;;;;;;;;;;143731;564;46020;-89
2021/09/13 07:01:57;;;;;;;10.70;5.12;;;;;;;;;;143730;673;46022;-88
2021/09/13 07:04:28;;;;;;;8.80;4.45;;;;;;;;;;143733;564;46018;-88
2021/09/13 07:06:56;;;;;;;11.75;4.43;;;;;;;;;;143733;643;46012;-88
2021/09/13 07:09:22;;;;;;;11.50;4.55;;;;;;;;;;143730;591;46020;-88
2021/09/13 07:11:49;;;;;;;8.70;4.80;;;;;;;;;;143731;572;46012;-88
2021/09/13 07:14:16;;;;;;;11.05;4.18;;;;;;;;;;143731;616;46018;-86
2021/09/13 07:16:42;;;;;;;12.77;4.28;;;;;;;;;;143732;660;46021;-87
2021/09/13 07:19:09;;;;;;;7.82;3.90;;;;;;;;;;143727;634;46021;-86
2021/09/13 07:21:36;;;;;;;7.87;4.20;;;;;;;;;;143729;575;46012;-88
2021/09/13 07:24:03;;;;;;;10.25;4.78;;;;;;;;;;143729;570;46036;-87
2021/09/13 07:26:31;;;;;;;7.15;3.75;;;;;;;;;;143735;589;46012;-88
2021/09/13 07:28:58;;;;;;;6.10;4.20;;;;;;;;;;143735;578;46014;-88
2021/09/13 07:31:25;;;;;;;11.95;4.43;;;;;;;;;;143729;620;46013;-88
2021/09/13 07:33:52;;;;;;;13.95;4.70;;;;;;;;;;143729;575;46018;-89
2021/09/13 07:36:19;;;;;;;11.00;4.40;;;;;;;;;;143734;569;46012;-89
2021/09/13 07:38:46;;;;;;;10.35;5.32;;;;;;;;;;143732;566;46018;-88
2021/09/13 07:41:15;;;;;;;9.82;3.97;;;;;;;;;;143733;614;45921;-88
2021/09/13 07:43:43;;;;;;;8.00;4.80;;;;;;;;;;143726;584;46018;-87
2021/09/13 07:46:10;;;;;;;7.78;4.65;;;;;;;;;;143730;588;46022;-87
2021/09/13 07:48:37;;;;;;;10.40;5.32;;;;;;;;;;143733;604;46018;-91
2021/09/13 07:51:04;;;;;;;7.97;4.85;;;;;;;;;;143732;584;45920;-88
2021/09/13 07:53:31;;;;;;;11.88;4.90;;;;;;;;;;143732;601;46019;-90
2021/09/13 07:55:58;;;;;;;5.68;4.03;;;;;;;;;;143733;662;46012;-89
2021/09/13 07:58:25;;;;;;;8.80;4.80;;;;;;;;;;143729;569;47018;-89
2021/09/13 08:00:52;;;;;;;10.60;4.47;;;;;;;;;;143730;595;46012;-90
2021/09/13 08:03:18;;;;;;;11.00;4.68;;;;;;;;;;143732;600;46019;-88
2021/09/13 08:05:45;;;;;;;8.50;4.35;;;;;;;;;;143733;599;46012;-87
2021/09/13 08:08:13;;;;;;;9.63;4.28;;;;;;;;;;143725;608;46019;-88
2021/09/13 08:10:40;;;;;;;9.80;4.87;;;;;;;;;;143729;627;46012;-89
2021/09/13 08:13:06;;;;;;;18.27;4.53;;;;;;;;;;143733;565;46018;-90
2021/09/13 08:15:33;;;;;;;9.68;4.53;;;;;;;;;;143730;567;46013;-89
2021/09/13 08:18:00;;;;;;;11.48;4.18;;;;;;;;;;143730;586;46047;-90
2021/09/13 08:20:32;;;;;;;13.73;4.75;;;;;;;;;;143730;570;46920;-89
2021/09/13 08:22:59;;;;;;;7.20;5.00;;;;;;;;;;143730;582;46019;-91
2021/09/13 08:25:26;;;;;;;7.43;4.40;;;;;;;;;;143732;616;46023;-89
2021/09/13 08:27:54;;;;;;;8.05;4.20;;;;;;;;;;143731;602;47020;-88
2021/09/13 08:30:20;;;;;;;9.38;4.82;;;;;;;;;;143730;581;46013;-89
2021/09/13 08:32:47;;;;;;;12.25;4.85;;;;;;;;;;143723;651;46019;-89
2021/09/13 08:35:14;;;;;;;18.95;4.82;;;;;;;;;;143736;627;46012;-89
2021/09/13 08:37:41;;;;;;;10.43;4.95;;;;;;;;;;143731;619;46020;-91
2021/09/13 08:40:08;;;;;;;14.15;5.00;;;;;;;;;;143731;572;46012;-90
2021/09/13 08:42:44;;;;;;;9.10;4.35;;;;;;;;;;143731;585;46018;-91
2021/09/13 08:45:13;;;;;;;8.35;4.47;;;;;;;;;;143736;608;45023;-90
2021/09/13 08:48:04;;;;;;;8.95;4.03;;;;;;;;;;143733;592;46021;-88
2021/09/13 08:53:25;;;;;;;12.52;4.43;;;;;;;;;;143733;564;46018;-88
2021/09/13 08:55:51;;;;;;;11.88;4.80;;;;;;;;;;143732;564;46012;-90
2021/09/13 08:58:24;;;;;;;9.68;4.93;;;;;;;;;;143727;589;46020;-89
2021/09/13 09:00:52;;;;;;;8.13;4.65;;;;;;;;;;143728;577;46013;-89
2021/09/13 09:03:19;;;;;;;15.13;4.55;;;;;;;;;;143732;581;46027;-88
2021/09/13 09:05:48;;;;;;;6.90;4.28;;;;;;;;;;143734;592;46012;-89
2021/09/13 09:08:31;;;;;;;9.93;5.07;;;;;;;;;;143728;575;47020;-88
2021/09/13 09:11:01;;;;;;;10.90;4.70;;;;;;;;;;143731;637;46012;-88
2021/09/13 09:13:42;;;;;;;9.30;5.43;;;;;;;;;;143734;608;46018;-90
2021/09/13 09:16:15;;;;;;;11.52;5.25;;;;;;;;;;143735;617;46023;-87
2021/09/13 09:18:47;;;;;;;11.48;4.55;;;;;;;;;;143731;615;47021;-91
2021/09/13 09:21:27;;;;;;;12.93;5.15;;;;;;;;;;143731;585;46012;-92
2021/09/13 09:23:59;;;;;;;10.75;4.60;;;;;;;;;;143724;601;46019;-91
2021/09/13 09:26:27;;;;;;;11.30;4.50;;;;;;;;;;143731;564;46916;-90
2021/09/13 09:28:57;;;;;;;13.50;4.32;;;;;;;;;;143732;576;46020;-90
2021/09/13 09:31:41;;;;;;;14.30;4.75;;;;;;;;;;143729;662;46013;-89
2021/09/13 09:34:21;;;;;;;9.00;4.95;;;;;;;;;;143735;604;46018;-92
2021/09/13 09:37:25;;;;;;;8.40;4.60;;;;;;;;;;143738;565;45022;-90
2021/09/13 09:40:15;;;;;;;22.08;5.20;;;;;;;;;;143737;620;45021;-92
2021/09/13 09:42:55;;;;;;;11.40;4.72;;;;;;;;;;143737;574;45920;-90
2021/09/13 09:45:35;;;;;;;15.73;4.97;;;;;;;;;;143734;658;46018;-90
2021/09/13 09:48:37;;;;;;;14.87;4.43;;;;;;;;;;143738;748;45022;-91
2021/09/13 09:51:39;;;;;;;9.85;5.32;;;;;;;;;;143730;611;45022;-92
2021/09/13 09:54:14;;;;;;;8.90;5.25;;;;;;;;;;143736;585;45923;-91
2021/09/13 09:56:47;;;;;;;10.02;5.05;;;;;;;;;;143736;599;45018;-90
2021/09/13 09:59:17;;;;;;;10.50;4.80;;;;;;;;;;143735;637;46012;-90
2021/09/13 10:01:48;;;;;;;12.40;5.30;;;;;;;;;;143734;594;46021;-91
2021/09/13 10:04:29;;;;;;;7.12;4.22;;;;;;;;;;143733;583;45922;-90
2021/09/13 10:07:03;;;;;;;9.32;5.20;;;;;;;;;;143737;718;45018;-91
2021/09/13 10:09:31;;;;;;;15.55;5.78;;;;;;;;;;143734;710;46023;-90
2021/09/13 10:12:01;;;;;;;6.78;4.82;;;;;;;;;;143731;575;46020;-90
2021/09/13 10:14:31;;;;;;;7.03;5.37;;;;;;;;;;143732;591;46013;-91
2021/09/13 10:16:59;;;;;;;8.35;5.25;;;;;;;;;;143725;588;46019;-89
2021/09/13 10:19:28;;;;;;;10.35;6.18;;;;;;;;;;143736;566;46012;-88
2021/09/13 10:22:11;;;;;;;14.00;6.05;;;;;;;;;;143736;637;46020;-89
2021/09/13 10:24:49;;;;;;;22.45;7.78;;;;;;;;;;143731;580;46012;-89
2021/09/13 10:27:34;;;;;;;12.37;5.80;;;;;;;;;;143732;612;47018;-89
2021/09/13 10:30:25;;;;;;;10.63;6.20;;;;;;;;;;143735;563;46013;-92
2021/09/13 10:33:15;;;;;;;12.32;5.72;;;;;;;;;;143731;585;46042;-91
2021/09/13 10:36:11;;;;;;;10.73;5.12;;;;;;;;;;143733;578;46012;-89
2021/09/13 10:38:50;;;;;;;15.68;5.82;;;;;;;;;;143735;618;46019;-89
2021/09/13 10:41:53;;;;;;;12.27;5.25;;;;;;;;;;143733;581;46012;-90
2021/09/13 10:44:36;;;;;;;9.15;4.68;;;;;;;;;;143725;565;45916;-91
2021/09/13 10:47:13;;;;;;;9.93;5.50;;;;;;;;;;143733;586;46022;-91
2021/09/13 10:49:40;;;;;;;15.32;5.72;;;;;;;;;;143737;659;46018;-91
2021/09/13 10:52:31;;;;;;;9.65;5.68;;;;;;;;;;143734;564;46013;-90
2021/09/13 10:55:31;;;;;;;11.73;6.87;;;;;;;;;;143732;567;46014;-87
2021/09/13 10:58:06;;;;;;;13.20;5.80;;;;;;;;;;143734;595;46022;-90
2021/09/13 11:00:59;;;;;;;9.85;6.35;;;;;;;;;;143733;587;46019;-91
2021/09/13 11:03:36;;;;;;;10.10;5.53;;;;;;;;;;143733;932;47012;-89
2021/09/13 11:06:26;;;;;;;10.40;5.43;;;;;;;;;;143734;664;46022;-88
2021/09/13 11:09:00;;;;;;;23.65;5.45;;;;;;;;;;143732;575;46013;-88
2021/09/13 11:11:43;;;;;;;16.50;6.10;;;;;;;;;;143723;576;46018;-90
2021/09/13 11:14:16;;;;;;;8.43;6.07;;;;;;;;;;143735;565;46013;-91
2021/09/13 11:17:03;;;;;;;11.75;6.43;;;;;;;;;;143729;583;47021;-90
2021/09/13 11:19:30;;;;;;;8.75;5.57;;;;;;;;;;143732;566;46922;-89
2021/09/13 11:21:59;;;;;;;14.73;5.82;;;;;;;;;;143734;972;46019;-90
2021/09/13 11:24:29;;;;;;;17.58;6.05;;;;;;;;;;143735;865;46012;-89
2021/09/13 11:27:04;;;;;;;10.02;6.07;;;;;;;;;;143735;973;46020;-90
2021/09/13 11:29:42;;;;;;;16.27;5.70;;;;;;;;;;143732;591;46023;-87
2021/09/13 11:32:11;;;;;;;20.92;5.28;;;;;;;;;;143733;822;46914;-90
2021/09/13 11:34:56;;;;;;;19.58;6.00;;;;;;;;;;143730;587;47012;-90
2021/09/13 11:37:27;;;;;;;9.68;5.65;;;;;;;;;;143727;585;46014;-91
2021/09/13 11:39:57;;;;;;;10.05;5.65;;;;;;;;;;143732;907;46012;-90
2021/09/13 11:42:29;;;;;;;11.25;5.95;;;;;;;;;;143733;588;46018;-91
2021/09/13 11:45:02;;;;;;;8.02;6.15;;;;;;;;;;143737;970;45023;-89
2021/09/13 11:47:30;;;;;;;10.65;5.95;;;;;;;;;;143731;972;47018;-91
2021/09/13 11:49:59;;;;;;;13.88;5.22;;;;;;;;;;143733;973;46012;-89
2021/09/13 11:52:34;;;;;;;15.48;6.32;;;;;;;;;;143726;714;47018;-88
2021/09/13 11:55:06;;;;;;;11.77;5.78;;;;;;;;;;143733;976;47012;-90
2021/09/13 11:57:51;;;;;;;14.40;6.03;;;;;;;;;;143730;563;47018;-91
2021/09/13 12:00:38;;;;;;;11.20;6.22;;;;;;;;;;143733;575;46012;-88
2021/09/13 12:03:07;;;;;;;8.55;5.80;;;;;;;;;;143727;668;46014;-88
2021/09/13 12:05:36;;;;;;;17.92;5.97;;;;;;;;;;143734;973;46020;-88
2021/09/13 12:08:06;;;;;;;15.13;5.90;;;;;;;;;;143731;922;46020;-89
2021/09/13 12:10:38;;;;;;;14.80;7.32;;;;;;;;;;143733;574;46012;-89
2021/09/13 12:13:10;;;;;;;9.10;5.25;;;;;;;;;;143731;592;46018;-90
2021/09/13 12:15:38;;;;;;;13.43;6.10;;;;;;;;;;143734;585;46012;-90
2021/09/13 12:18:10;;;;;;;10.88;5.93;;;;;;;;;;143731;581;46020;-91
2021/09/13 12:20:38;;;;;;;14.52;5.68;;;;;;;;;;143734;566;46023;-90
2021/09/13 12:23:10;;;;;;;12.98;5.95;;;;;;;;;;143733;676;46019;-89
2021/09/13 12:25:47;;;;;;;8.48;5.65;;;;;;;;;;143736;782;46012;-87
2021/09/13 12:28:23;;;;;;;15.07;5.70;;;;;;;;;;143727;565;46019;-88
2021/09/13 12:30:55;;;;;;;13.15;6.35;;;;;;;;;;143732;584;46012;-89
2021/09/13 12:33:38;;;;;;;11.80;5.53;;;;;;;;;;143732;836;46018;-87
2021/09/13 12:36:18;;;;;;;14.85;5.78;;;;;;;;;;143735;599;46022;-88
2021/09/13 12:38:48;;;;;;;14.95;6.72;;;;;;;;;;143733;969;46014;-88
2021/09/13 12:41:15;;;;;;;13.27;5.97;;;;;;;;;;143732;976;46012;-88
2021/09/13 12:43:45;;;;;;;12.45;6.00;;;;;;;;;;143731;772;46019;-89
2021/09/13 12:46:17;;;;;;;8.73;5.72;;;;;;;;;;143732;775;46012;-91
2021/09/13 12:48:48;;;;;;;;;;;;;;;;;;143738;974;46020;-88
2021/09/13 12:51:23;;;;;;;13.30;5.90;;;;;;;;;;143732;626;46013;-89
2021/09/13 12:54:02;;;;;;;9.82;6.12;;;;;;;;;;143723;977;47018;-91
2021/09/13 12:56:31;;;;;;;13.02;6.32;;;;;;;;;;143734;569;46012;-93
2021/09/13 12:59:18;;;;;;;11.27;5.32;;;;;;;;;;143732;691;46019;-91
2021/09/13 13:01:47;;;;;;;14.80;6.30;;;;;;;;;;143729;977;48012;-89
2021/09/13 13:04:18;;;;;;;11.25;6.65;;;;;;;;;;143732;794;46018;-87
2021/09/13 13:06:47;;;;;;;13.55;5.80;;;;;;;;;;143734;630;46013;-88
2021/09/13 13:09:18;;;;;;;12.23;6.37;;;;;;;;;;143731;564;46021;-92
2021/09/13 13:11:45;;;;;;;11.32;6.07;;;;;;;;;;143731;599;46012;-89
2021/09/13 13:14:13;;;;;;;9.40;5.97;;;;;;;;;;143730;587;46019;-89
2021/09/13 13:16:44;;;;;;;14.30;5.87;;;;;;;;;;143734;634;46012;-88
2021/09/13 13:19:13;;;;;;;9.88;5.55;;;;;;;;;;143728;916;46012;-89
2021/09/13 13:21:43;;;;;;;12.00;6.25;;;;;;;;;;143731;576;46023;-89
2021/09/13 13:24:21;;;;;;;8.82;6.45;;;;;;;;;;143734;585;46018;-86
2021/09/13 13:26:51;;;;;;;9.27;6.10;;;;;;;;;;143729;680;49022;-91
2021/09/13 13:29:25;;;;;;;9.70;5.85;;;;;;;;;;143726;569;47019;-91
2021/09/13 13:31:52;;;;;;;17.83;6.50;;;;;;;;;;143734;564;46012;-90
2021/09/13 13:34:19;;;;;;;8.95;5.37;;;;;;;;;;143735;569;46018;-92
2021/09/13 13:36:47;;;;;;;13.18;6.05;;;;;;;;;;143734;608;46020;-90
2021/09/13 13:39:14;;;;;;;13.45;6.22;;;;;;;;;;143735;564;46021;-90
2021/09/13 13:41:41;;;;;;;9.25;6.18;;;;;;;;;;143734;978;46012;-93
2021/09/13 13:44:10;;;;;;;8.75;5.60;;;;;;;;;;143728;588;46019;-92
2021/09/13 13:46:38;;;;;;;13.02;6.07;;;;;;;;;;143733;979;46012;-91
2021/09/13 13:49:06;;;;;;;18.73;5.78;;;;;;;;;;143732;591;47020;-90
2021/09/13 13:51:33;;;;;;;12.07;6.47;;;;;;;;;;143733;591;46012;-92
2021/09/13 13:54:00;;;;;;;15.32;6.12;;;;;;;;;;143732;720;46018;-88
2021/09/13 13:56:28;;;;;;;16.20;6.37;;;;;;;;;;143736;596;46010;-94
2021/09/13 13:58:56;;;;;;;11.60;6.07;;;;;;;;;;143736;581;46020;-90
2021/09/13 14:01:23;;;;;;;9.27;5.50;;;;;;;;;;143735;595;46022;-89
2021/09/13 14:03:50;;;;;;;8.90;6.12;;;;;;;;;;143736;595;46012;-91
2021/09/13 14:06:18;;;;;;;10.45;5.55;;;;;;;;;;143739;979;46010;-92
2021/09/13 14:08:58;;;;;;;17.05;6.95;;;;;;;;;;143730;565;46913;-93
2021/09/13 14:11:57;;;;;;;6.82;5.53;;;;;;;;;;143735;580;46012;-91
2021/09/13 14:14:50;;;;;;;8.82;6.20;;;;;;;;;;143737;575;46012;-89
2021/09/13 14:17:20;;;;;;;8.07;5.80;;;;;;;;;;143734;838;48022;-93
2021/09/13 14:19:50;;;;;;;13.02;5.85;;;;;;;;;;143735;572;46020;-91
2021/09/13 14:22:31;;;;;;;18.08;5.82;;;;;;;;;;143735;585;46012;-89
2021/09/13 14:25:29;;;;;;;14.60;6.35;;;;;;;;;;143738;565;45018;-92
2021/09/13 14:27:58;;;;;;;10.60;6.12;;;;;;;;;;143736;633;46010;-69
2021/09/13 14:30:28;;;;;;;11.38;6.18;;;;;;;;;;143723;566;48012;-68
2021/09/13 14:32:54;;;;;;;9.98;6.60;;;;;;;;;;143728;667;46920;-66
2021/09/13 14:35:21;;;;;;;9.00;6.35;;;;;;;;;;143721;585;47018;-68
2021/09/13 14:37:47;;;;;;;10.55;6.50;;;;;;;;;;143727;605;46023;-68
2021/09/13 14:40:14;;;;;;;14.93;6.47;;;;;;;;;;143728;576;46020;-68
2021/09/13 14:42:40;;;;;;;14.43;5.75;;;;;;;;;;143728;577;46013;-68
2021/09/13 14:45:08;;;;;;;13.98;6.57;;;;;;;;;;143727;565;46012;-68
2021/09/13 14:47:36;;;;;;;9.93;6.68;;;;;;;;;;143727;589;46012;-68
2021/09/13 14:50:03;;;;;;;13.70;7.18;;;;;;;;;;143723;588;46020;-69
2021/09/13 14:52:31;;;;;;;15.32;7.45;;;;;;;;;;143726;618;46012;-69
2021/09/13 14:54:57;;;;;;;15.93;7.22;;;;;;;;;;143726;746;46012;-66